createdAt,value
2023-05-08T00:02:04.061Z,18.25
2023-05-08T00:04:32.538Z,16.00
2023-05-08T00:07:00.956Z,18.00
2023-05-08T00:09:29.390Z,19.25
2023-05-08T00:11:58.243Z,19.00
2023-05-08T00:14:26.709Z,19.00
2023-05-08T00:16:55.138Z,20.25
2023-05-08T00:19:23.811Z,18.25
2023-05-08T00:21:53.422Z,20.50
2023-05-08T00:24:21.789Z,19.50
2023-05-08T00:26:50.169Z,20.00
2023-05-08T00:29:18.585Z,18.00
2023-05-08T00:31:47.012Z,18.50
2023-05-08T00:34:15.466Z,19.50
2023-05-08T00:36:43.839Z,18.00
2023-05-08T00:39:12.205Z,19.50
2023-05-08T00:41:40.672Z,17.00
2023-05-08T00:44:09.373Z,19.00
2023-05-08T00:46:38.287Z,19.00
2023-05-08T00:49:08.053Z,19.25
2023-05-08T00:51:36.498Z,17.50
2023-05-08T00:54:05.409Z,19.00
2023-05-08T00:56:35.343Z,20.25
2023-05-08T00:59:05.626Z,19.25
2023-05-08T01:01:36.043Z,19.25
2023-05-08T01:04:05.862Z,19.75
2023-05-08T01:06:35.222Z,19.25
2023-05-08T01:09:04.513Z,19.25
2023-05-08T01:11:39.506Z,18.25
2023-05-08T01:14:31.148Z,19.25
2023-05-08T01:17:24.631Z,17.50
2023-05-08T01:20:18.617Z,15.75
2023-05-08T01:22:53.114Z,17.50
2023-05-08T01:25:36.772Z,15.25
2023-05-08T01:28:33.056Z,15.50
2023-05-08T01:31:14.085Z,15.00
2023-05-08T01:34:16.238Z,14.00
2023-05-08T01:36:52.834Z,14.00
2023-05-08T01:39:41.353Z,12.00
2023-05-08T01:42:40.355Z,12.50
2023-05-08T01:45:15.209Z,9.75
2023-05-08T01:47:45.473Z,9.25
2023-05-08T01:50:23.329Z,9.25
2023-05-08T01:52:58.977Z,6.75
2023-05-08T01:55:36.862Z,7.50
2023-05-08T01:58:09.698Z,9.00
2023-05-08T02:00:41.843Z,10.25
2023-05-08T02:03:12.108Z,13.50
2023-05-08T02:05:42.544Z,9.50
2023-05-08T02:08:13.977Z,5.00
2023-05-08T02:10:43.769Z,4.75
2023-05-08T02:13:14.566Z,4.00
2023-05-08T02:15:47.737Z,3.50
2023-05-08T02:18:20.062Z,3.00
2023-05-08T02:20:51.499Z,4.00
2023-05-08T02:23:22.171Z,4.50
2023-05-08T02:25:52.599Z,3.25
2023-05-08T02:28:21.897Z,3.25
2023-05-08T02:30:52.871Z,4.25
2023-05-08T02:33:22.584Z,4.00
2023-05-08T02:35:52.941Z,3.25
2023-05-08T02:38:25.002Z,2.75
2023-05-08T02:41:02.036Z,3.50
2023-05-08T02:43:36.754Z,3.75
2023-05-08T02:46:11.078Z,3.75
2023-05-08T02:48:52.942Z,3.50
2023-05-08T02:51:39.332Z,4.00
2023-05-08T02:54:25.597Z,3.75
2023-05-08T02:57:22.581Z,3.75
2023-05-08T03:00:02.416Z,2.50
2023-05-08T03:02:45.189Z,3.75
2023-05-08T03:05:25.385Z,4.25
2023-05-08T03:07:57.048Z,5.00
2023-05-08T03:10:33.518Z,4.50
2023-05-08T03:13:06.190Z,4.00
2023-05-08T03:16:00.068Z,2.75
2023-05-08T03:18:34.879Z,2.25
2023-05-08T03:21:04.405Z,2.50
2023-05-08T03:23:36.571Z,3.50
2023-05-08T03:26:05.972Z,2.50
2023-05-08T03:28:36.813Z,3.50
2023-05-08T03:31:07.711Z,2.75
2023-05-08T03:33:39.387Z,4.00
2023-05-08T03:36:08.138Z,3.00
2023-05-08T03:38:37.350Z,4.00
2023-05-08T03:41:06.251Z,3.25
2023-05-08T03:43:37.717Z,3.00
2023-05-08T03:46:09.935Z,1.25
2023-05-08T03:48:39.840Z,3.00
2023-05-08T03:51:08.260Z,3.00
2023-05-08T03:53:36.737Z,3.75
2023-05-08T03:56:05.407Z,3.50
2023-05-08T03:58:36.800Z,2.75
2023-05-08T04:01:13.309Z,3.75
2023-05-08T04:04:19.006Z,3.00
2023-05-08T04:07:01.101Z,3.00
2023-05-08T04:09:36.740Z,2.75
2023-05-08T04:12:23.065Z,3.50
2023-05-08T04:14:56.897Z,2.75
2023-05-08T04:17:42.276Z,1.50
2023-05-08T04:20:16.562Z,3.25
2023-05-08T04:22:47.921Z,2.50
2023-05-08T04:25:19.102Z,2.00
2023-05-08T04:27:49.055Z,2.25
2023-05-08T04:30:17.926Z,2.75
2023-05-08T04:32:47.066Z,2.75
2023-05-08T04:35:16.154Z,2.25
2023-05-08T04:37:44.981Z,3.25
2023-05-08T04:40:13.665Z,2.50
2023-05-08T04:42:43.965Z,3.00
2023-05-08T04:45:13.041Z,3.50
2023-05-08T04:47:41.597Z,5.00
2023-05-08T04:50:10.633Z,5.00
2023-05-08T04:52:39.236Z,5.00
2023-05-08T04:55:08.266Z,7.75
2023-05-08T04:57:37.081Z,5.00
2023-05-08T05:00:07.198Z,7.00
2023-05-08T05:02:35.641Z,3.25
2023-05-08T05:05:04.360Z,5.50
2023-05-08T05:07:32.928Z,5.25
2023-05-08T05:10:01.986Z,4.50
2023-05-08T05:12:30.421Z,5.50
2023-05-08T05:14:58.841Z,4.75
2023-05-08T05:17:27.343Z,5.75
2023-05-08T05:19:55.771Z,5.00
2023-05-08T05:22:25.056Z,4.50
2023-05-08T05:24:53.595Z,5.75
2023-05-08T05:27:22.061Z,5.00
2023-05-08T05:29:50.498Z,4.75
2023-05-08T05:32:19.001Z,4.00
2023-05-08T05:34:47.406Z,4.25
2023-05-08T05:37:15.959Z,5.50
2023-05-08T05:39:44.352Z,5.00
2023-05-08T05:42:12.810Z,4.00
2023-05-08T05:44:41.288Z,4.50
2023-05-08T05:47:11.727Z,4.75
2023-05-08T05:49:44.175Z,4.75
2023-05-08T05:52:12.711Z,4.00
2023-05-08T05:54:42.445Z,6.00
2023-05-08T05:57:10.900Z,5.00
2023-05-08T05:59:39.498Z,5.25
2023-05-08T06:02:11.231Z,6.50
2023-05-08T06:04:39.860Z,7.00
2023-05-08T06:07:08.292Z,6.25
2023-05-08T06:09:37.535Z,6.25
2023-05-08T06:12:05.991Z,6.75
2023-05-08T06:14:34.436Z,6.00
2023-05-08T06:17:02.884Z,6.25
2023-05-08T06:19:31.421Z,7.50
2023-05-08T06:21:59.805Z,7.50
2023-05-08T06:24:28.840Z,8.50
2023-05-08T06:26:57.492Z,8.25
2023-05-08T06:29:25.941Z,8.00
2023-05-08T06:31:54.375Z,9.00
2023-05-08T06:34:22.792Z,7.75
2023-05-08T06:36:51.322Z,9.25
2023-05-08T06:39:19.705Z,8.75
2023-05-08T06:41:51.298Z,8.25
2023-05-08T06:44:19.673Z,8.25
2023-05-08T06:46:48.299Z,7.50
2023-05-08T06:49:17.226Z,7.00
2023-05-08T06:51:45.638Z,8.50
2023-05-08T06:54:14.172Z,9.00
2023-05-08T06:56:42.612Z,6.75
2023-05-08T06:59:11.136Z,7.25
2023-05-08T07:01:39.604Z,6.00
2023-05-08T07:04:08.099Z,5.25
2023-05-08T07:06:36.648Z,5.50
2023-05-08T07:09:05.170Z,5.75
2023-05-08T07:11:33.642Z,6.25
2023-05-08T07:14:02.045Z,5.75
2023-05-08T07:16:30.508Z,7.00
2023-05-08T07:18:58.952Z,5.00
2023-05-08T07:21:27.486Z,5.50
2023-05-08T07:23:55.944Z,8.75
2023-05-08T07:26:24.444Z,6.25
2023-05-08T07:28:55.221Z,7.25
2023-05-08T07:31:23.670Z,5.50
2023-05-08T07:33:52.148Z,7.25
2023-05-08T07:36:20.579Z,5.50
2023-05-08T07:38:49.049Z,6.50
2023-05-08T07:41:17.511Z,6.00
2023-05-08T07:43:46.222Z,5.50
2023-05-08T07:46:19.119Z,6.00
2023-05-08T07:48:47.623Z,6.25
2023-05-08T07:51:16.856Z,5.75
2023-05-08T07:53:45.343Z,6.50
2023-05-08T07:56:13.720Z,6.00
2023-05-08T07:58:43.559Z,6.75
2023-05-08T08:01:12.037Z,5.00
2023-05-08T08:03:40.523Z,6.00
2023-05-08T08:06:09.078Z,6.25
2023-05-08T08:08:37.556Z,5.25
2023-05-08T08:11:06.645Z,4.75
2023-05-08T08:13:35.226Z,6.00
2023-05-08T08:16:05.200Z,5.25
2023-05-08T08:18:37.752Z,5.50
2023-05-08T08:21:09.438Z,7.25
2023-05-08T08:23:38.066Z,6.00
2023-05-08T08:26:06.598Z,4.75
2023-05-08T08:28:35.212Z,5.50
2023-05-08T08:31:03.696Z,5.00
2023-05-08T08:33:32.663Z,3.75
2023-05-08T08:36:01.058Z,6.00
2023-05-08T08:38:29.755Z,5.25
2023-05-08T08:40:58.215Z,6.75
2023-05-08T08:43:26.689Z,6.00
2023-05-08T08:45:55.131Z,5.00
2023-05-08T08:48:29.753Z,6.00
2023-05-08T08:51:04.744Z,4.25
2023-05-08T08:53:39.126Z,5.25
2023-05-08T08:56:10.699Z,5.25
2023-05-08T08:58:52.109Z,5.00
2023-05-08T09:01:23.139Z,5.25
2023-05-08T09:03:52.330Z,5.50
2023-05-08T09:06:21.592Z,4.00
2023-05-08T09:08:50.566Z,6.00
2023-05-08T09:11:18.963Z,5.00
2023-05-08T09:13:47.483Z,8.25
2023-05-08T09:16:15.955Z,5.00
2023-05-08T09:18:44.405Z,5.25
2023-05-08T09:21:13.016Z,5.25
2023-05-08T09:24:02.449Z,5.50
2023-05-08T09:26:42.143Z,5.75
2023-05-08T09:29:23.289Z,6.75
2023-05-08T09:31:54.265Z,7.25
2023-05-08T09:34:25.881Z,5.25
2023-05-08T09:36:54.922Z,6.50
2023-05-08T09:39:25.908Z,6.50
2023-05-08T09:42:02.261Z,6.50
2023-05-08T09:44:44.574Z,6.00
2023-05-08T09:47:17.552Z,7.50
2023-05-08T09:50:00.650Z,6.50
2023-05-08T09:52:30.755Z,5.75
2023-05-08T09:55:04.841Z,6.75
2023-05-08T09:57:35.584Z,6.75
2023-05-08T10:00:07.140Z,6.50
2023-05-08T10:02:36.860Z,6.50
2023-05-08T10:05:36.563Z,5.75
2023-05-08T10:08:24.978Z,6.00
2023-05-08T10:10:54.207Z,5.00
2023-05-08T10:13:22.652Z,7.25
2023-05-08T10:15:55.986Z,5.00
2023-05-08T10:18:31.211Z,5.75
2023-05-08T10:21:06.478Z,6.00
2023-05-08T10:23:36.461Z,6.50
2023-05-08T10:26:13.334Z,6.00
2023-05-08T10:28:58.893Z,7.25
2023-05-08T10:31:30.937Z,6.00
2023-05-08T10:34:02.967Z,6.75
2023-05-08T10:36:33.453Z,6.25
2023-05-08T10:39:01.969Z,6.25
2023-05-08T10:41:30.623Z,6.50
2023-05-08T10:44:02.575Z,7.00
2023-05-08T10:46:56.950Z,6.25
2023-05-08T10:49:43.617Z,6.25
2023-05-08T10:52:37.044Z,6.50
2023-05-08T10:55:25.079Z,6.25
2023-05-08T10:58:07.947Z,6.75
2023-05-08T11:00:54.906Z,5.50
2023-05-08T11:03:32.009Z,7.25
2023-05-08T11:06:02.395Z,8.75
2023-05-08T11:08:32.367Z,10.25
2023-05-08T11:11:01.076Z,9.25
2023-05-08T11:13:54.872Z,10.75
2023-05-08T11:17:06.534Z,9.00
2023-05-08T11:19:35.607Z,8.75
2023-05-08T11:22:14.498Z,7.75
2023-05-08T11:24:50.263Z,8.50
2023-05-08T11:27:19.055Z,8.75
2023-05-08T11:30:25.301Z,10.00
2023-05-08T11:33:05.842Z,7.50
2023-05-08T11:35:46.560Z,8.50
2023-05-08T11:38:34.339Z,8.00
2023-05-08T11:41:05.704Z,7.75
2023-05-08T11:43:34.315Z,7.25
2023-05-08T11:46:08.207Z,8.00
2023-05-08T11:48:37.457Z,9.00
2023-05-08T11:51:06.431Z,8.75
2023-05-08T11:53:37.402Z,7.25
2023-05-08T11:56:06.160Z,6.75
2023-05-08T11:58:34.557Z,9.25
2023-05-08T12:01:02.998Z,9.00
2023-05-08T12:03:31.707Z,8.00
2023-05-08T12:06:01.226Z,6.75
2023-05-08T12:08:29.923Z,8.00
2023-05-08T12:10:59.436Z,10.25
2023-05-08T12:13:30.127Z,8.75
2023-05-08T12:16:01.196Z,8.75
2023-05-08T12:18:31.773Z,10.25
2023-05-08T12:21:03.290Z,9.50
2023-05-08T12:23:32.055Z,10.75
2023-05-08T12:26:02.236Z,10.25
2023-05-08T12:28:35.249Z,10.75
2023-05-08T12:31:03.834Z,8.25
2023-05-08T12:33:32.695Z,7.25
2023-05-08T12:36:01.868Z,8.50
2023-05-08T12:38:31.052Z,10.50
2023-05-08T12:41:00.344Z,9.50
2023-05-08T12:43:38.459Z,12.50
2023-05-08T12:46:07.265Z,13.25
2023-05-08T12:48:35.668Z,13.25
2023-05-08T12:51:06.055Z,13.00
2023-05-08T12:53:35.107Z,12.75
2023-05-08T12:56:05.910Z,13.75
2023-05-08T12:58:35.934Z,14.00
2023-05-08T13:01:14.331Z,14.00
2023-05-08T13:03:43.055Z,16.50
2023-05-08T13:06:22.452Z,14.75
2023-05-08T13:08:58.694Z,13.50
2023-05-08T13:11:32.420Z,15.75
2023-05-08T13:14:00.977Z,16.75
2023-05-08T13:16:29.528Z,14.00
2023-05-08T13:18:57.928Z,14.25
2023-05-08T13:21:27.840Z,14.50
2023-05-08T13:23:57.946Z,16.75
2023-05-08T13:26:27.258Z,18.25
2023-05-08T13:28:56.583Z,17.75
2023-05-08T13:31:27.435Z,17.25
2023-05-08T13:33:55.891Z,15.75
2023-05-08T13:36:25.457Z,13.00
2023-05-08T13:38:55.783Z,12.75
2023-05-08T13:41:24.383Z,15.75
2023-05-08T13:43:52.741Z,15.00
2023-05-08T13:46:21.377Z,12.50
2023-05-08T13:48:49.808Z,15.00
2023-05-08T13:51:18.477Z,15.75
2023-05-08T13:53:46.993Z,15.00
2023-05-08T13:56:15.732Z,12.75
2023-05-08T13:58:44.236Z,14.00
2023-05-08T14:01:25.614Z,12.75
2023-05-08T14:03:56.466Z,11.00
2023-05-08T14:06:25.156Z,10.75
2023-05-08T14:08:55.488Z,11.75
2023-05-08T14:11:25.526Z,10.50
2023-05-08T14:13:54.331Z,9.50
2023-05-08T14:16:23.014Z,11.00
2023-05-08T14:18:51.487Z,11.25
2023-05-08T14:21:20.286Z,9.75
2023-05-08T14:23:48.692Z,10.25
2023-05-08T14:26:17.127Z,11.25
2023-05-08T14:28:45.566Z,9.75
2023-05-08T14:31:14.742Z,8.75
2023-05-08T14:33:43.182Z,9.25
2023-05-08T14:36:11.903Z,9.00
2023-05-08T14:38:40.296Z,6.50
2023-05-08T14:41:08.704Z,7.75
2023-05-08T14:43:37.111Z,6.75
2023-05-08T14:46:05.587Z,6.00
2023-05-08T14:48:33.997Z,6.25
2023-05-08T14:51:02.436Z,6.00
2023-05-08T14:53:30.968Z,6.50
2023-05-08T14:56:01.664Z,5.25
2023-05-08T14:58:30.426Z,5.75
2023-05-08T15:00:58.943Z,6.25
2023-05-08T15:03:27.486Z,6.25
2023-05-08T15:05:56.185Z,6.00
2023-05-08T15:08:24.715Z,6.00
2023-05-08T15:11:01.734Z,5.50
2023-05-08T15:13:30.245Z,5.00
2023-05-08T15:15:59.431Z,5.25
2023-05-08T15:18:29.512Z,5.50
2023-05-08T15:20:58.990Z,5.50
2023-05-08T15:23:27.978Z,7.00
2023-05-08T15:25:56.477Z,6.25
2023-05-08T15:28:24.936Z,6.00
2023-05-08T15:30:53.351Z,4.50
2023-05-08T15:33:21.765Z,5.50
2023-05-08T15:35:50.406Z,6.50
2023-05-08T15:38:18.885Z,5.25
2023-05-08T15:40:47.260Z,5.25
2023-05-08T15:43:15.686Z,5.00
2023-05-08T15:45:44.101Z,5.25
2023-05-08T15:48:12.733Z,5.25
2023-05-08T15:50:41.804Z,4.75
2023-05-08T15:53:10.262Z,4.25
2023-05-08T15:55:39.666Z,4.50
2023-05-08T15:58:08.033Z,4.00
2023-05-08T16:00:44.114Z,4.00
2023-05-08T16:03:14.291Z,5.75
2023-05-08T16:05:42.871Z,4.25
2023-05-08T16:08:13.811Z,5.25
2023-05-08T16:10:43.182Z,4.50
2023-05-08T16:13:11.697Z,4.50
2023-05-08T16:15:40.207Z,5.00
2023-05-08T16:18:08.997Z,5.00
2023-05-08T16:20:37.437Z,4.25
2023-05-08T16:23:05.827Z,5.25
2023-05-08T16:25:34.385Z,5.00
2023-05-08T16:28:03.002Z,4.00
2023-05-08T16:30:31.756Z,4.75
2023-05-08T16:33:01.100Z,5.25
2023-05-08T16:35:30.511Z,4.75
2023-05-08T16:37:59.050Z,5.25
2023-05-08T16:40:27.514Z,5.50
2023-05-08T16:42:55.913Z,4.00
2023-05-08T16:45:24.405Z,4.75
2023-05-08T16:47:52.862Z,7.75
2023-05-08T16:50:21.394Z,4.75
2023-05-08T16:52:49.789Z,4.75
2023-05-08T16:55:18.245Z,5.50
2023-05-08T16:57:46.625Z,5.25
2023-05-08T17:00:15.702Z,5.50
2023-05-08T17:02:44.196Z,6.25
2023-05-08T17:05:13.188Z,4.75
2023-05-08T17:07:42.080Z,4.75
2023-05-08T17:10:12.045Z,4.25
2023-05-08T17:12:40.596Z,6.25
2023-05-08T17:15:09.496Z,4.50
2023-05-08T17:17:38.002Z,5.50
2023-05-08T17:20:07.068Z,4.75
2023-05-08T17:22:35.501Z,4.00
2023-05-08T17:25:03.907Z,3.75
2023-05-08T17:27:32.327Z,7.75
2023-05-08T17:30:00.892Z,15.75
2023-05-08T17:32:29.524Z,19.25
2023-05-08T17:34:58.691Z,13.50
2023-05-08T17:37:27.086Z,14.00
2023-05-08T17:39:55.476Z,14.00
2023-05-08T17:42:23.858Z,10.50
2023-05-08T17:44:52.228Z,7.00
2023-05-08T17:47:20.648Z,7.75
2023-05-08T17:49:49.116Z,8.25
2023-05-08T17:52:17.557Z,6.50
2023-05-08T17:54:45.957Z,6.25
2023-05-08T17:57:14.569Z,7.25
2023-05-08T17:59:43.009Z,7.75
2023-05-08T18:02:11.539Z,9.75
2023-05-08T18:04:39.936Z,7.75
2023-05-08T18:07:08.663Z,8.50
2023-05-08T18:09:37.079Z,9.50
2023-05-08T18:12:05.678Z,8.25
2023-05-08T18:14:34.514Z,7.00
2023-05-08T18:17:02.946Z,8.50
2023-05-08T18:19:31.372Z,7.75
2023-05-08T18:21:59.752Z,8.50
2023-05-08T18:24:28.125Z,7.00
2023-05-08T18:26:56.861Z,6.75
2023-05-08T18:29:26.580Z,4.75
2023-05-08T18:31:54.991Z,5.25
2023-05-08T18:34:23.434Z,7.25
2023-05-08T18:36:51.881Z,6.75
2023-05-08T18:39:20.294Z,5.50
2023-05-08T18:41:48.708Z,4.50
2023-05-08T18:44:17.905Z,6.50
2023-05-08T18:46:46.423Z,8.25
2023-05-08T18:49:14.833Z,6.00
2023-05-08T18:51:43.298Z,6.00
2023-05-08T18:54:11.787Z,5.75
2023-05-08T18:56:40.205Z,6.25
2023-05-08T18:59:09.142Z,6.25
2023-05-08T19:01:37.634Z,5.75
2023-05-08T19:04:06.321Z,5.75
2023-05-08T19:06:34.788Z,6.75
2023-05-08T19:09:03.254Z,5.00
2023-05-08T19:11:31.777Z,5.50
2023-05-08T19:14:00.150Z,4.25
2023-05-08T19:16:28.670Z,6.00
2023-05-08T19:18:57.282Z,5.00
2023-05-08T19:21:25.771Z,4.25
2023-05-08T19:23:54.164Z,5.00
2023-05-08T19:26:22.702Z,5.00
2023-05-08T19:28:51.152Z,5.25
2023-05-08T19:31:19.663Z,5.50
2023-05-08T19:33:49.530Z,5.50
2023-05-08T19:36:19.337Z,6.50
2023-05-08T19:38:47.707Z,7.00
2023-05-08T19:41:16.193Z,5.00
2023-05-08T19:43:44.586Z,5.75
2023-05-08T19:46:13.090Z,6.75
2023-05-08T19:48:41.531Z,4.00
2023-05-08T19:51:10.682Z,6.25
2023-05-08T19:53:40.727Z,4.50
2023-05-08T19:56:09.223Z,7.50
2023-05-08T19:58:37.642Z,7.50
2023-05-08T20:01:06.240Z,6.25
2023-05-08T20:03:34.783Z,5.75
2023-05-08T20:06:03.328Z,5.50
2023-05-08T20:08:31.879Z,5.00
2023-05-08T20:11:03.364Z,6.00
2023-05-08T20:13:31.757Z,5.75
2023-05-08T20:16:00.261Z,7.75
2023-05-08T20:18:28.742Z,7.00
2023-05-08T20:20:57.142Z,7.50
2023-05-08T20:23:25.539Z,6.00
2023-05-08T20:25:55.209Z,5.25
2023-05-08T20:28:26.833Z,6.00
2023-05-08T20:30:55.322Z,6.75
2023-05-08T20:33:23.832Z,5.75
2023-05-08T20:35:53.877Z,7.50
2023-05-08T20:38:22.711Z,8.00
2023-05-08T20:40:51.278Z,7.75
2023-05-08T20:43:20.408Z,6.25
2023-05-08T20:45:50.136Z,6.00
2023-05-08T20:48:18.606Z,8.00
2023-05-08T20:50:49.586Z,5.50
2023-05-08T20:53:18.071Z,9.00
2023-05-08T20:55:46.575Z,8.00
2023-05-08T20:58:14.997Z,5.50
2023-05-08T21:00:43.425Z,6.00
2023-05-08T21:03:11.910Z,5.75
2023-05-08T21:05:40.278Z,6.25
2023-05-08T21:08:09.714Z,5.50
2023-05-08T21:10:38.155Z,5.75
2023-05-08T21:13:06.616Z,7.25
2023-05-08T21:15:36.003Z,8.75
2023-05-08T21:18:04.662Z,9.25
2023-05-08T21:20:35.125Z,7.25
2023-05-08T21:23:03.530Z,7.25
2023-05-08T21:25:32.056Z,7.75
2023-05-08T21:28:00.521Z,7.50
2023-05-08T21:30:28.955Z,5.50
2023-05-08T21:32:57.503Z,8.00
2023-05-08T21:35:25.953Z,7.00
2023-05-08T21:37:54.800Z,5.75
2023-05-08T21:40:23.995Z,5.50
2023-05-08T21:42:52.389Z,6.50
2023-05-08T21:45:20.841Z,6.75
2023-05-08T21:47:49.298Z,6.50
2023-05-08T21:50:17.766Z,4.75
2023-05-08T21:52:46.259Z,6.25
2023-05-08T21:55:14.938Z,7.75
2023-05-08T21:57:43.616Z,7.50
2023-05-08T22:00:12.470Z,6.50
2023-05-08T22:02:40.988Z,7.00
2023-05-08T22:05:09.822Z,5.75
2023-05-08T22:07:38.180Z,6.50
2023-05-08T22:10:07.545Z,6.00
2023-05-08T22:12:36.115Z,7.25
2023-05-08T22:15:09.466Z,6.75
2023-05-08T22:17:41.617Z,8.25
2023-05-08T22:20:13.099Z,6.00
2023-05-08T22:22:42.327Z,5.00
2023-05-08T22:25:10.993Z,5.50
2023-05-08T22:27:39.405Z,9.00
2023-05-08T22:30:08.690Z,8.25
2023-05-08T22:32:37.607Z,9.00
2023-05-08T22:35:07.114Z,7.25
2023-05-08T22:37:35.490Z,7.50
2023-05-08T22:40:03.917Z,7.00
2023-05-08T22:42:32.449Z,7.00
2023-05-08T22:45:00.877Z,6.25
2023-05-08T22:47:29.790Z,7.50
2023-05-08T22:49:58.730Z,7.00
2023-05-08T22:52:27.152Z,8.25
2023-05-08T22:54:55.552Z,7.75
2023-05-08T22:57:23.928Z,7.75
2023-05-08T22:59:52.340Z,7.00
2023-05-08T23:02:20.783Z,7.00
2023-05-08T23:04:49.528Z,7.00
2023-05-08T23:07:18.000Z,7.00
2023-05-08T23:09:46.350Z,7.25
2023-05-08T23:12:14.753Z,8.25
2023-05-08T23:14:43.112Z,7.25
2023-05-08T23:17:14.828Z,8.00
2023-05-08T23:19:43.949Z,8.00
2023-05-08T23:22:12.332Z,7.00
2023-05-08T23:24:41.009Z,8.25
2023-05-08T23:27:09.449Z,10.50
2023-05-08T23:29:37.894Z,11.50
2023-05-08T23:32:06.460Z,11.75
2023-05-08T23:34:34.872Z,11.75
2023-05-08T23:37:04.345Z,9.75
2023-05-08T23:39:41.973Z,10.50
2023-05-08T23:42:10.486Z,9.25
2023-05-08T23:44:38.908Z,10.00
2023-05-08T23:47:07.649Z,10.75
2023-05-08T23:49:36.322Z,10.00
2023-05-08T23:52:04.832Z,11.25
2023-05-08T23:54:33.282Z,9.75
2023-05-08T23:57:01.669Z,11.00
2023-05-08T23:59:30.022Z,9.25
